This is the latest recevied weather packets stored in our database for station/object IU1FIL-23. If no packets are shown the sender has not sent any weather packets the latest 10 day(s).
| Time | Temp. | Humidity | Pressure | Rain* | Wind** | Luminosity | Snow |
|---|---|---|---|---|---|---|---|
| 1777791900 | 14.44° C | 44% | 1022.1 hPa | - | - | - | - |
| 1777791294 | 13.33° C | 45% | 1021.9 hPa | - | - | - | - |
| 1777790690 | 13.33° C | 44% | 1021.8 hPa | - | - | - | - |
| 1777790085 | 13.89° C | 41% | 1021.8 hPa | - | - | - | - |
| 1777789474 | 15.56° C | 39% | 1021.7 hPa | - | - | - | - |
| 1777788870 | 13.89° C | 41% | 1021.7 hPa | - | - | - | - |
| 1777788266 | 12.22° C | 42% | 1021.6 hPa | - | - | - | - |
| 1777787662 | 11.67° C | 41% | 1021.7 hPa | - | - | - | - |
| 1777787058 | 11.67° C | 41% | 1021.8 hPa | - | - | - | - |
| 1777786454 | 12.22° C | 40% | 1021.7 hPa | - | - | - | - |
| 1777785850 | 13.33° C | 38% | 1021.6 hPa | - | - | - | - |
| 1777785246 | 11.11° C | 39% | 1021.7 hPa | - | - | - | - |
| 1777784641 | 10.56° C | 39% | 1021.7 hPa | - | - | - | - |
| 1777784037 | 10.56° C | 39% | 1021.7 hPa | - | - | - | - |
| 1777783433 | 10° C | 42% | 1021.8 hPa | - | - | - | - |
| 1777782829 | 10° C | 40% | 1021.8 hPa | - | - | - | - |
| 1777782216 | 9.44° C | 40% | 1021.7 hPa | - | - | - | - |
| 1777781612 | 10° C | 40% | 1021.7 hPa | - | - | - | - |
| 1777781008 | 10° C | 40% | 1021.7 hPa | - | - | - | - |
| 1777780404 | 10° C | 39% | 1021.7 hPa | - | - | - | - |
| 1777779800 | 9.44° C | 40% | 1021.7 hPa | - | - | - | - |
| 1777779196 | 10° C | 39% | 1021.7 hPa | - | - | - | - |
| 1777778590 | 10° C | 39% | 1021.7 hPa | - | - | - | - |
| 1777777978 | 10° C | 39% | 1021.8 hPa | - | - | - | - |
| 1777777374 | 10.56° C | 37% | 1021.9 hPa | - | - | - | - |
* Rain since midnight (hover to see other rain measurements)
** Current wind speed in m/s (hover to see current wind gust speed)